sensor_id;sensor_type;location;lat;lon;timestamp;temperature;humidity
31975;DHT22;18500;43.618;1.474;2023-08-12T00:01:33;21.80;1.00
31975;DHT22;18500;43.618;1.474;2023-08-12T00:03:59;21.80;1.00
31975;DHT22;18500;43.618;1.474;2023-08-12T00:06:24;21.80;1.00
31975;DHT22;18500;43.618;1.474;2023-08-12T00:08:49;21.70;1.00
31975;DHT22;18500;43.618;1.474;2023-08-12T00:11:15;21.70;1.00
31975;DHT22;18500;43.618;1.474;2023-08-12T00:13:40;21.70;1.00
31975;DHT22;18500;43.618;1.474;2023-08-12T00:16:06;21.70;1.00
31975;DHT22;18500;43.618;1.474;2023-08-12T00:18:31;21.60;1.00
31975;DHT22;18500;43.618;1.474;2023-08-12T00:21:08;21.60;1.00
31975;DHT22;18500;43.618;1.474;2023-08-12T00:23:37;21.60;1.00
31975;DHT22;18500;43.618;1.474;2023-08-12T00:26:02;21.50;1.00
31975;DHT22;18500;43.618;1.474;2023-08-12T00:28:28;21.50;1.00
31975;DHT22;18500;43.618;1.474;2023-08-12T00:30:53;21.50;1.00
31975;DHT22;18500;43.618;1.474;2023-08-12T00:33:19;21.40;1.00
31975;DHT22;18500;43.618;1.474;2023-08-12T00:35:44;21.40;1.00
31975;DHT22;18500;43.618;1.474;2023-08-12T00:38:10;21.40;1.00
31975;DHT22;18500;43.618;1.474;2023-08-12T00:40:36;21.30;1.00
31975;DHT22;18500;43.618;1.474;2023-08-12T00:43:01;21.30;1.00
31975;DHT22;18500;43.618;1.474;2023-08-12T00:45:27;21.20;1.00
31975;DHT22;18500;43.618;1.474;2023-08-12T00:47:52;21.10;1.00
31975;DHT22;18500;43.618;1.474;2023-08-12T00:50:18;21.10;1.00
31975;DHT22;18500;43.618;1.474;2023-08-12T00:52:44;21.00;1.00
31975;DHT22;18500;43.618;1.474;2023-08-12T00:55:10;21.00;1.00
31975;DHT22;18500;43.618;1.474;2023-08-12T00:57:36;21.00;1.00
31975;DHT22;18500;43.618;1.474;2023-08-12T01:00:02;21.00;1.00
31975;DHT22;18500;43.618;1.474;2023-08-12T01:02:29;20.90;1.00
31975;DHT22;18500;43.618;1.474;2023-08-12T01:04:55;20.90;1.00
31975;DHT22;18500;43.618;1.474;2023-08-12T01:07:20;20.90;1.00
31975;DHT22;18500;43.618;1.474;2023-08-12T01:09:46;20.80;1.00
31975;DHT22;18500;43.618;1.474;2023-08-12T01:12:56;20.80;1.00
31975;DHT22;18500;43.618;1.474;2023-08-12T01:15:06;20.70;1.00
31975;DHT22;18500;43.618;1.474;2023-08-12T01:17:33;20.70;1.00
31975;DHT22;18500;43.618;1.474;2023-08-12T01:19:59;20.60;1.00
31975;DHT22;18500;43.618;1.474;2023-08-12T01:22:25;20.50;1.00
31975;DHT22;18500;43.618;1.474;2023-08-12T01:24:52;20.50;1.00
31975;DHT22;18500;43.618;1.474;2023-08-12T01:27:18;20.50;1.00
31975;DHT22;18500;43.618;1.474;2023-08-12T01:29:47;20.50;1.00
31975;DHT22;18500;43.618;1.474;2023-08-12T01:37:14;20.40;1.00
31975;DHT22;18500;43.618;1.474;2023-08-12T01:39:42;20.40;1.00
31975;DHT22;18500;43.618;1.474;2023-08-12T01:42:08;20.40;1.00
31975;DHT22;18500;43.618;1.474;2023-08-12T01:44:34;20.30;1.00
31975;DHT22;18500;43.618;1.474;2023-08-12T01:47:00;20.30;1.00
31975;DHT22;18500;43.618;1.474;2023-08-12T01:49:26;20.20;1.00
31975;DHT22;18500;43.618;1.474;2023-08-12T01:51:52;20.20;1.00
31975;DHT22;18500;43.618;1.474;2023-08-12T01:54:17;20.20;1.00
31975;DHT22;18500;43.618;1.474;2023-08-12T01:56:43;20.20;1.00
31975;DHT22;18500;43.618;1.474;2023-08-12T01:59:08;20.20;1.00
31975;DHT22;18500;43.618;1.474;2023-08-12T02:01:34;20.10;1.00
31975;DHT22;18500;43.618;1.474;2023-08-12T02:03:59;20.10;1.00
31975;DHT22;18500;43.618;1.474;2023-08-12T02:06:25;20.10;1.00
31975;DHT22;18500;43.618;1.474;2023-08-12T02:08:50;20.10;1.00
31975;DHT22;18500;43.618;1.474;2023-08-12T02:11:16;20.10;1.00
31975;DHT22;18500;43.618;1.474;2023-08-12T02:13:41;20.10;1.00
31975;DHT22;18500;43.618;1.474;2023-08-12T02:16:07;20.10;1.00
31975;DHT22;18500;43.618;1.474;2023-08-12T02:18:32;20.00;1.00
31975;DHT22;18500;43.618;1.474;2023-08-12T02:20:58;20.00;1.00
31975;DHT22;18500;43.618;1.474;2023-08-12T02:23:24;20.00;1.00
31975;DHT22;18500;43.618;1.474;2023-08-12T02:25:49;20.00;1.00
31975;DHT22;18500;43.618;1.474;2023-08-12T02:28:17;19.90;1.00
31975;DHT22;18500;43.618;1.474;2023-08-12T02:30:42;19.90;1.00
31975;DHT22;18500;43.618;1.474;2023-08-12T02:33:08;19.90;1.00
31975;DHT22;18500;43.618;1.474;2023-08-12T02:35:34;19.80;1.00
31975;DHT22;18500;43.618;1.474;2023-08-12T02:37:59;19.80;1.00
31975;DHT22;18500;43.618;1.474;2023-08-12T02:40:25;19.80;1.00
31975;DHT22;18500;43.618;1.474;2023-08-12T02:42:50;19.70;1.00
31975;DHT22;18500;43.618;1.474;2023-08-12T02:45:16;19.70;1.00
31975;DHT22;18500;43.618;1.474;2023-08-12T02:47:41;19.70;1.00
31975;DHT22;18500;43.618;1.474;2023-08-12T02:50:07;19.70;1.00
31975;DHT22;18500;43.618;1.474;2023-08-12T02:52:33;19.60;1.00
31975;DHT22;18500;43.618;1.474;2023-08-12T02:54:58;19.60;1.00
31975;DHT22;18500;43.618;1.474;2023-08-12T02:57:24;19.60;1.00
31975;DHT22;18500;43.618;1.474;2023-08-12T02:59:49;19.60;1.00
31975;DHT22;18500;43.618;1.474;2023-08-12T03:02:15;19.60;1.00
31975;DHT22;18500;43.618;1.474;2023-08-12T03:04:41;19.60;1.00
31975;DHT22;18500;43.618;1.474;2023-08-12T03:07:07;19.50;1.00
31975;DHT22;18500;43.618;1.474;2023-08-12T03:09:32;19.50;1.00
31975;DHT22;18500;43.618;1.474;2023-08-12T03:11:58;19.40;1.00
31975;DHT22;18500;43.618;1.474;2023-08-12T03:14:28;19.40;1.00
31975;DHT22;18500;43.618;1.474;2023-08-12T03:16:53;19.40;1.00
31975;DHT22;18500;43.618;1.474;2023-08-12T03:19:19;19.40;1.00
31975;DHT22;18500;43.618;1.474;2023-08-12T03:21:44;19.40;1.00
31975;DHT22;18500;43.618;1.474;2023-08-12T03:24:10;19.30;1.00
31975;DHT22;18500;43.618;1.474;2023-08-12T03:26:35;19.40;1.00
31975;DHT22;18500;43.618;1.474;2023-08-12T03:29:01;19.30;1.00
31975;DHT22;18500;43.618;1.474;2023-08-12T03:31:26;19.30;1.00
31975;DHT22;18500;43.618;1.474;2023-08-12T03:33:52;19.30;1.00
31975;DHT22;18500;43.618;1.474;2023-08-12T03:36:17;19.30;1.00
31975;DHT22;18500;43.618;1.474;2023-08-12T03:38:43;19.30;1.00
31975;DHT22;18500;43.618;1.474;2023-08-12T03:41:08;19.20;1.00
31975;DHT22;18500;43.618;1.474;2023-08-12T03:43:34;19.20;1.00
31975;DHT22;18500;43.618;1.474;2023-08-12T03:45:59;19.20;1.00
31975;DHT22;18500;43.618;1.474;2023-08-12T03:48:25;19.10;1.00
31975;DHT22;18500;43.618;1.474;2023-08-12T03:50:50;19.10;1.00
31975;DHT22;18500;43.618;1.474;2023-08-12T03:53:16;19.10;1.00
31975;DHT22;18500;43.618;1.474;2023-08-12T03:55:42;19.10;1.00
31975;DHT22;18500;43.618;1.474;2023-08-12T03:58:08;19.10;1.00
31975;DHT22;18500;43.618;1.474;2023-08-12T04:00:33;19.10;1.00
31975;DHT22;18500;43.618;1.474;2023-08-12T04:02:59;19.10;1.00
31975;DHT22;18500;43.618;1.474;2023-08-12T04:05:24;19.00;1.00
31975;DHT22;18500;43.618;1.474;2023-08-12T04:07:50;19.00;1.00
31975;DHT22;18500;43.618;1.474;2023-08-12T04:10:15;19.00;1.00
31975;DHT22;18500;43.618;1.474;2023-08-12T04:12:41;19.00;1.00
31975;DHT22;18500;43.618;1.474;2023-08-12T04:15:09;18.90;1.00
31975;DHT22;18500;43.618;1.474;2023-08-12T04:17:35;18.90;1.00
31975;DHT22;18500;43.618;1.474;2023-08-12T04:20:00;18.90;1.00
31975;DHT22;18500;43.618;1.474;2023-08-12T04:22:26;18.90;1.00
31975;DHT22;18500;43.618;1.474;2023-08-12T04:24:53;18.90;1.00
31975;DHT22;18500;43.618;1.474;2023-08-12T04:27:18;18.80;1.00
31975;DHT22;18500;43.618;1.474;2023-08-12T04:29:45;18.90;1.00
31975;DHT22;18500;43.618;1.474;2023-08-12T04:32:11;18.90;1.00
31975;DHT22;18500;43.618;1.474;2023-08-12T04:34:36;18.90;1.00
31975;DHT22;18500;43.618;1.474;2023-08-12T04:37:02;18.90;1.00
31975;DHT22;18500;43.618;1.474;2023-08-12T04:39:27;18.90;1.00
31975;DHT22;18500;43.618;1.474;2023-08-12T04:41:53;18.80;1.00
31975;DHT22;18500;43.618;1.474;2023-08-12T04:44:18;18.80;1.00
31975;DHT22;18500;43.618;1.474;2023-08-12T04:46:44;18.80;1.00
31975;DHT22;18500;43.618;1.474;2023-08-12T04:49:09;18.80;1.00
31975;DHT22;18500;43.618;1.474;2023-08-12T04:51:35;18.90;1.00
31975;DHT22;18500;43.618;1.474;2023-08-12T04:54:01;18.90;1.00
31975;DHT22;18500;43.618;1.474;2023-08-12T04:56:27;18.90;1.00
31975;DHT22;18500;43.618;1.474;2023-08-12T04:58:54;18.90;1.00
31975;DHT22;18500;43.618;1.474;2023-08-12T05:01:20;18.90;1.00
31975;DHT22;18500;43.618;1.474;2023-08-12T05:03:45;18.90;1.00
31975;DHT22;18500;43.618;1.474;2023-08-12T05:06:11;18.90;1.00
31975;DHT22;18500;43.618;1.474;2023-08-12T05:08:36;18.90;1.00
31975;DHT22;18500;43.618;1.474;2023-08-12T05:11:02;19.00;1.00
31975;DHT22;18500;43.618;1.474;2023-08-12T05:13:27;18.90;1.00
31975;DHT22;18500;43.618;1.474;2023-08-12T05:15:54;18.90;1.00
31975;DHT22;18500;43.618;1.474;2023-08-12T05:18:21;18.90;1.00
31975;DHT22;18500;43.618;1.474;2023-08-12T05:20:48;18.90;1.00
31975;DHT22;18500;43.618;1.474;2023-08-12T05:23:16;18.90;1.00
31975;DHT22;18500;43.618;1.474;2023-08-12T05:25:41;19.00;1.00
31975;DHT22;18500;43.618;1.474;2023-08-12T05:28:07;19.00;1.00
31975;DHT22;18500;43.618;1.474;2023-08-12T05:30:33;19.00;1.00
31975;DHT22;18500;43.618;1.474;2023-08-12T05:32:59;19.00;1.00
31975;DHT22;18500;43.618;1.474;2023-08-12T05:35:24;19.10;1.00
31975;DHT22;18500;43.618;1.474;2023-08-12T05:37:50;19.10;1.00
31975;DHT22;18500;43.618;1.474;2023-08-12T05:40:15;19.20;1.00
31975;DHT22;18500;43.618;1.474;2023-08-12T05:42:41;19.30;1.00
31975;DHT22;18500;43.618;1.474;2023-08-12T05:45:06;19.50;1.00
31975;DHT22;18500;43.618;1.474;2023-08-12T05:47:32;19.60;1.00
31975;DHT22;18500;43.618;1.474;2023-08-12T05:49:58;19.70;1.00
31975;DHT22;18500;43.618;1.474;2023-08-12T05:52:23;19.70;1.00
31975;DHT22;18500;43.618;1.474;2023-08-12T05:54:49;19.80;1.00
31975;DHT22;18500;43.618;1.474;2023-08-12T05:57:14;20.00;1.00
31975;DHT22;18500;43.618;1.474;2023-08-12T05:59:40;20.00;1.00
31975;DHT22;18500;43.618;1.474;2023-08-12T06:02:05;20.10;1.00
31975;DHT22;18500;43.618;1.474;2023-08-12T06:04:31;20.20;1.00
31975;DHT22;18500;43.618;1.474;2023-08-12T06:06:57;20.20;1.00
31975;DHT22;18500;43.618;1.474;2023-08-12T06:09:22;20.20;1.00
31975;DHT22;18500;43.618;1.474;2023-08-12T06:11:48;20.30;1.00
31975;DHT22;18500;43.618;1.474;2023-08-12T06:14:13;20.30;1.00
31975;DHT22;18500;43.618;1.474;2023-08-12T06:16:39;20.30;1.00
31975;DHT22;18500;43.618;1.474;2023-08-12T06:19:05;20.30;1.00
31975;DHT22;18500;43.618;1.474;2023-08-12T06:21:30;20.40;1.00
31975;DHT22;18500;43.618;1.474;2023-08-12T06:23:56;20.30;1.00
31975;DHT22;18500;43.618;1.474;2023-08-12T06:26:21;20.40;1.00
31975;DHT22;18500;43.618;1.474;2023-08-12T06:28:47;20.30;1.00
31975;DHT22;18500;43.618;1.474;2023-08-12T06:31:12;20.40;1.00
31975;DHT22;18500;43.618;1.474;2023-08-12T06:33:38;20.40;1.00
31975;DHT22;18500;43.618;1.474;2023-08-12T06:36:03;20.40;1.00
31975;DHT22;18500;43.618;1.474;2023-08-12T06:38:29;20.40;1.00
31975;DHT22;18500;43.618;1.474;2023-08-12T06:40:55;20.40;1.00
31975;DHT22;18500;43.618;1.474;2023-08-12T06:43:20;20.40;1.00
31975;DHT22;18500;43.618;1.474;2023-08-12T06:45:46;20.40;1.00
31975;DHT22;18500;43.618;1.474;2023-08-12T06:48:11;20.40;1.00
31975;DHT22;18500;43.618;1.474;2023-08-12T06:50:37;20.50;1.00
31975;DHT22;18500;43.618;1.474;2023-08-12T06:53:02;20.60;1.00
31975;DHT22;18500;43.618;1.474;2023-08-12T06:55:28;20.70;1.00
31975;DHT22;18500;43.618;1.474;2023-08-12T06:57:54;20.80;1.00
31975;DHT22;18500;43.618;1.474;2023-08-12T07:00:19;20.90;1.00
31975;DHT22;18500;43.618;1.474;2023-08-12T07:02:45;21.00;1.00
31975;DHT22;18500;43.618;1.474;2023-08-12T07:05:10;21.10;1.00
31975;DHT22;18500;43.618;1.474;2023-08-12T07:07:36;21.20;1.00
31975;DHT22;18500;43.618;1.474;2023-08-12T07:10:02;21.30;1.00
31975;DHT22;18500;43.618;1.474;2023-08-12T07:12:28;21.40;1.00
31975;DHT22;18500;43.618;1.474;2023-08-12T07:14:54;21.40;1.00
31975;DHT22;18500;43.618;1.474;2023-08-12T07:17:19;21.40;1.00
31975;DHT22;18500;43.618;1.474;2023-08-12T07:19:45;21.50;1.00
31975;DHT22;18500;43.618;1.474;2023-08-12T07:22:10;21.60;1.00
31975;DHT22;18500;43.618;1.474;2023-08-12T07:24:36;21.60;1.00
31975;DHT22;18500;43.618;1.474;2023-08-12T07:27:01;21.70;1.00
31975;DHT22;18500;43.618;1.474;2023-08-12T07:29:27;21.70;1.00
31975;DHT22;18500;43.618;1.474;2023-08-12T07:31:52;21.80;1.00
31975;DHT22;18500;43.618;1.474;2023-08-12T07:34:18;21.90;1.00
31975;DHT22;18500;43.618;1.474;2023-08-12T07:36:44;22.10;1.00
31975;DHT22;18500;43.618;1.474;2023-08-12T07:39:10;22.20;1.00
31975;DHT22;18500;43.618;1.474;2023-08-12T07:41:36;22.10;1.00
31975;DHT22;18500;43.618;1.474;2023-08-12T07:44:01;22.30;1.00
31975;DHT22;18500;43.618;1.474;2023-08-12T07:46:27;22.30;1.00
31975;DHT22;18500;43.618;1.474;2023-08-12T07:48:53;22.40;1.00
31975;DHT22;18500;43.618;1.474;2023-08-12T07:51:19;22.60;1.00
31975;DHT22;18500;43.618;1.474;2023-08-12T07:53:45;22.70;1.00
31975;DHT22;18500;43.618;1.474;2023-08-12T07:56:10;22.70;1.00
31975;DHT22;18500;43.618;1.474;2023-08-12T07:58:36;22.70;1.00
31975;DHT22;18500;43.618;1.474;2023-08-12T08:01:01;22.70;1.00
31975;DHT22;18500;43.618;1.474;2023-08-12T08:03:27;23.00;1.00
31975;DHT22;18500;43.618;1.474;2023-08-12T08:05:52;23.20;1.00
31975;DHT22;18500;43.618;1.474;2023-08-12T08:08:18;23.40;1.00
31975;DHT22;18500;43.618;1.474;2023-08-12T08:10:43;23.20;1.00
31975;DHT22;18500;43.618;1.474;2023-08-12T08:13:09;23.20;1.00
31975;DHT22;18500;43.618;1.474;2023-08-12T08:15:34;23.10;1.00
31975;DHT22;18500;43.618;1.474;2023-08-12T08:18:00;23.10;1.00
31975;DHT22;18500;43.618;1.474;2023-08-12T08:20:26;22.90;1.00
31975;DHT22;18500;43.618;1.474;2023-08-12T08:22:51;22.80;1.00
31975;DHT22;18500;43.618;1.474;2023-08-12T08:25:20;22.80;1.00
31975;DHT22;18500;43.618;1.474;2023-08-12T08:27:46;22.70;1.00
31975;DHT22;18500;43.618;1.474;2023-08-12T08:30:11;22.70;1.00
31975;DHT22;18500;43.618;1.474;2023-08-12T08:32:37;22.70;1.00
31975;DHT22;18500;43.618;1.474;2023-08-12T08:35:02;22.80;1.00
31975;DHT22;18500;43.618;1.474;2023-08-12T08:37:28;22.90;1.00
31975;DHT22;18500;43.618;1.474;2023-08-12T08:39:53;22.90;1.00
31975;DHT22;18500;43.618;1.474;2023-08-12T08:42:19;23.30;1.00
31975;DHT22;18500;43.618;1.474;2023-08-12T08:44:45;23.40;1.00
31975;DHT22;18500;43.618;1.474;2023-08-12T08:47:11;23.30;1.00
31975;DHT22;18500;43.618;1.474;2023-08-12T08:49:37;23.40;1.00
31975;DHT22;18500;43.618;1.474;2023-08-12T08:52:03;23.70;1.00
31975;DHT22;18500;43.618;1.474;2023-08-12T08:54:29;23.80;1.00
31975;DHT22;18500;43.618;1.474;2023-08-12T08:56:55;23.90;1.00
31975;DHT22;18500;43.618;1.474;2023-08-12T08:59:20;24.00;1.00
31975;DHT22;18500;43.618;1.474;2023-08-12T09:01:49;24.00;1.00
31975;DHT22;18500;43.618;1.474;2023-08-12T09:04:16;24.10;1.00
31975;DHT22;18500;43.618;1.474;2023-08-12T09:06:42;24.20;1.00
31975;DHT22;18500;43.618;1.474;2023-08-12T09:09:09;24.20;1.00
31975;DHT22;18500;43.618;1.474;2023-08-12T09:11:37;24.40;1.00
31975;DHT22;18500;43.618;1.474;2023-08-12T09:14:03;24.40;1.00
31975;DHT22;18500;43.618;1.474;2023-08-12T09:16:29;24.30;1.00
31975;DHT22;18500;43.618;1.474;2023-08-12T09:18:57;24.40;1.00
31975;DHT22;18500;43.618;1.474;2023-08-12T09:21:23;24.40;1.00
31975;DHT22;18500;43.618;1.474;2023-08-12T09:23:49;24.60;1.00
31975;DHT22;18500;43.618;1.474;2023-08-12T09:26:15;24.70;1.00
31975;DHT22;18500;43.618;1.474;2023-08-12T09:28:44;24.70;1.00
31975;DHT22;18500;43.618;1.474;2023-08-12T09:31:30;24.60;1.00
31975;DHT22;18500;43.618;1.474;2023-08-12T09:33:59;24.70;1.00
31975;DHT22;18500;43.618;1.474;2023-08-12T09:36:27;25.00;1.00
31975;DHT22;18500;43.618;1.474;2023-08-12T09:38:52;25.00;1.00
31975;DHT22;18500;43.618;1.474;2023-08-12T09:41:18;25.20;1.00
31975;DHT22;18500;43.618;1.474;2023-08-12T09:43:44;25.20;1.00
31975;DHT22;18500;43.618;1.474;2023-08-12T09:46:12;25.30;1.00
31975;DHT22;18500;43.618;1.474;2023-08-12T09:48:41;25.50;1.00
31975;DHT22;18500;43.618;1.474;2023-08-12T09:51:07;25.70;1.00
31975;DHT22;18500;43.618;1.474;2023-08-12T09:53:33;25.90;1.00
31975;DHT22;18500;43.618;1.474;2023-08-12T09:56:01;25.80;1.00
31975;DHT22;18500;43.618;1.474;2023-08-12T09:58:27;25.80;1.00
31975;DHT22;18500;43.618;1.474;2023-08-12T10:00:54;25.80;1.00
31975;DHT22;18500;43.618;1.474;2023-08-12T10:03:20;25.80;1.00
31975;DHT22;18500;43.618;1.474;2023-08-12T10:05:47;26.00;1.00
31975;DHT22;18500;43.618;1.474;2023-08-12T10:08:12;26.00;1.00
31975;DHT22;18500;43.618;1.474;2023-08-12T10:10:39;26.20;1.00
31975;DHT22;18500;43.618;1.474;2023-08-12T10:13:04;26.30;1.00
31975;DHT22;18500;43.618;1.474;2023-08-12T10:15:33;26.40;1.00
31975;DHT22;18500;43.618;1.474;2023-08-12T10:17:58;26.50;1.00
31975;DHT22;18500;43.618;1.474;2023-08-12T10:20:24;26.50;1.00
31975;DHT22;18500;43.618;1.474;2023-08-12T10:22:51;26.50;1.00
31975;DHT22;18500;43.618;1.474;2023-08-12T10:25:17;26.70;1.00
31975;DHT22;18500;43.618;1.474;2023-08-12T10:27:43;26.90;1.00
31975;DHT22;18500;43.618;1.474;2023-08-12T10:30:09;27.00;1.00
31975;DHT22;18500;43.618;1.474;2023-08-12T10:32:35;27.10;1.00
31975;DHT22;18500;43.618;1.474;2023-08-12T10:35:01;27.10;1.00
31975;DHT22;18500;43.618;1.474;2023-08-12T10:37:26;27.20;1.00
31975;DHT22;18500;43.618;1.474;2023-08-12T10:39:53;27.20;1.00
31975;DHT22;18500;43.618;1.474;2023-08-12T10:45:06;27.30;1.00
31975;DHT22;18500;43.618;1.474;2023-08-12T10:47:31;27.40;1.00
31975;DHT22;18500;43.618;1.474;2023-08-12T10:49:59;27.60;1.00
31975;DHT22;18500;43.618;1.474;2023-08-12T10:52:28;27.90;1.00
31975;DHT22;18500;43.618;1.474;2023-08-12T10:54:54;28.10;1.00
31975;DHT22;18500;43.618;1.474;2023-08-12T10:57:34;28.20;1.00
31975;DHT22;18500;43.618;1.474;2023-08-12T10:59:59;28.20;1.00
31975;DHT22;18500;43.618;1.474;2023-08-12T11:02:28;28.20;1.00
31975;DHT22;18500;43.618;1.474;2023-08-12T11:08:23;28.30;1.00
31975;DHT22;18500;43.618;1.474;2023-08-12T11:10:18;28.60;1.00
31975;DHT22;18500;43.618;1.474;2023-08-12T11:15:12;28.80;99.90
31975;DHT22;18500;43.618;1.474;2023-08-12T11:17:39;29.00;99.90
31975;DHT22;18500;43.618;1.474;2023-08-12T11:20:05;29.20;99.90
31975;DHT22;18500;43.618;1.474;2023-08-12T11:22:32;29.20;99.90
31975;DHT22;18500;43.618;1.474;2023-08-12T11:24:57;29.30;99.90
31975;DHT22;18500;43.618;1.474;2023-08-12T11:27:23;29.30;99.90
31975;DHT22;18500;43.618;1.474;2023-08-12T11:29:49;29.40;99.90
31975;DHT22;18500;43.618;1.474;2023-08-12T11:32:15;29.40;99.90
31975;DHT22;18500;43.618;1.474;2023-08-12T11:34:41;29.40;99.90
31975;DHT22;18500;43.618;1.474;2023-08-12T11:37:07;29.60;99.90
31975;DHT22;18500;43.618;1.474;2023-08-12T11:39:32;29.80;99.90
31975;DHT22;18500;43.618;1.474;2023-08-12T11:41:58;29.80;99.90
31975;DHT22;18500;43.618;1.474;2023-08-12T11:44:23;30.00;99.90
31975;DHT22;18500;43.618;1.474;2023-08-12T11:46:49;30.10;99.90
31975;DHT22;18500;43.618;1.474;2023-08-12T11:49:15;30.00;99.90
31975;DHT22;18500;43.618;1.474;2023-08-12T11:51:41;30.00;99.90
31975;DHT22;18500;43.618;1.474;2023-08-12T11:54:07;29.80;99.90
31975;DHT22;18500;43.618;1.474;2023-08-12T11:56:32;29.80;99.90
31975;DHT22;18500;43.618;1.474;2023-08-12T11:58:58;30.10;99.90
31975;DHT22;18500;43.618;1.474;2023-08-12T12:01:24;30.10;99.90
31975;DHT22;18500;43.618;1.474;2023-08-12T12:03:50;30.10;99.90
31975;DHT22;18500;43.618;1.474;2023-08-12T12:06:16;30.30;99.90
31975;DHT22;18500;43.618;1.474;2023-08-12T12:08:44;30.20;99.90
31975;DHT22;18500;43.618;1.474;2023-08-12T12:11:09;30.00;99.90
31975;DHT22;18500;43.618;1.474;2023-08-12T12:13:35;30.30;99.90
31975;DHT22;18500;43.618;1.474;2023-08-12T12:16:01;30.50;99.90
31975;DHT22;18500;43.618;1.474;2023-08-12T12:18:26;30.70;99.90
31975;DHT22;18500;43.618;1.474;2023-08-12T12:23:21;30.80;99.90
31975;DHT22;18500;43.618;1.474;2023-08-12T12:25:46;30.70;99.90
31975;DHT22;18500;43.618;1.474;2023-08-12T12:28:12;30.50;99.90
31975;DHT22;18500;43.618;1.474;2023-08-12T12:30:38;30.30;99.90
31975;DHT22;18500;43.618;1.474;2023-08-12T12:33:03;30.80;99.90
31975;DHT22;18500;43.618;1.474;2023-08-12T12:35:29;31.20;99.90
31975;DHT22;18500;43.618;1.474;2023-08-12T12:37:55;31.40;99.90
31975;DHT22;18500;43.618;1.474;2023-08-12T12:40:20;34.70;99.90
31975;DHT22;18500;43.618;1.474;2023-08-12T12:42:46;39.50;99.90
31975;DHT22;18500;43.618;1.474;2023-08-12T12:45:11;41.30;99.90
31975;DHT22;18500;43.618;1.474;2023-08-12T12:47:37;41.70;99.90
31975;DHT22;18500;43.618;1.474;2023-08-12T12:50:03;43.50;99.90
31975;DHT22;18500;43.618;1.474;2023-08-12T12:52:28;44.20;99.90
31975;DHT22;18500;43.618;1.474;2023-08-12T12:54:54;44.60;99.90
31975;DHT22;18500;43.618;1.474;2023-08-12T12:57:21;45.60;99.90
31975;DHT22;18500;43.618;1.474;2023-08-12T12:59:46;46.20;99.90
31975;DHT22;18500;43.618;1.474;2023-08-12T13:02:12;45.70;99.90
31975;DHT22;18500;43.618;1.474;2023-08-12T13:04:37;44.20;99.90
31975;DHT22;18500;43.618;1.474;2023-08-12T13:07:03;44.70;99.90
31975;DHT22;18500;43.618;1.474;2023-08-12T13:09:28;45.70;99.90
31975;DHT22;18500;43.618;1.474;2023-08-12T13:11:54;45.80;99.90
31975;DHT22;18500;43.618;1.474;2023-08-12T13:14:22;45.30;99.90
31975;DHT22;18500;43.618;1.474;2023-08-12T13:16:48;45.60;99.90
31975;DHT22;18500;43.618;1.474;2023-08-12T13:19:13;45.70;99.90
31975;DHT22;18500;43.618;1.474;2023-08-12T13:21:39;45.10;99.90
31975;DHT22;18500;43.618;1.474;2023-08-12T13:24:05;45.00;99.90
31975;DHT22;18500;43.618;1.474;2023-08-12T13:26:30;45.60;99.90
31975;DHT22;18500;43.618;1.474;2023-08-12T13:28:56;46.80;99.90
31975;DHT22;18500;43.618;1.474;2023-08-12T13:31:21;47.40;99.90
31975;DHT22;18500;43.618;1.474;2023-08-12T13:33:47;48.10;99.90
31975;DHT22;18500;43.618;1.474;2023-08-12T13:36:13;47.10;99.90
31975;DHT22;18500;43.618;1.474;2023-08-12T13:38:38;47.40;99.90
31975;DHT22;18500;43.618;1.474;2023-08-12T13:41:04;48.20;99.90
31975;DHT22;18500;43.618;1.474;2023-08-12T13:43:29;48.80;99.90
31975;DHT22;18500;43.618;1.474;2023-08-12T13:45:55;46.50;99.90
31975;DHT22;18500;43.618;1.474;2023-08-12T13:48:21;46.30;99.90
31975;DHT22;18500;43.618;1.474;2023-08-12T13:50:46;46.10;99.90
31975;DHT22;18500;43.618;1.474;2023-08-12T13:53:14;47.10;99.90
31975;DHT22;18500;43.618;1.474;2023-08-12T13:55:40;47.20;99.90
31975;DHT22;18500;43.618;1.474;2023-08-12T13:58:06;47.20;99.90
31975;DHT22;18500;43.618;1.474;2023-08-12T14:00:32;46.90;99.90
31975;DHT22;18500;43.618;1.474;2023-08-12T14:02:57;46.50;99.90
31975;DHT22;18500;43.618;1.474;2023-08-12T14:05:23;46.80;99.90
31975;DHT22;18500;43.618;1.474;2023-08-12T14:07:49;41.80;99.90
31975;DHT22;18500;43.618;1.474;2023-08-12T14:10:14;42.10;99.90
31975;DHT22;18500;43.618;1.474;2023-08-12T14:12:40;43.40;99.90
31975;DHT22;18500;43.618;1.474;2023-08-12T14:15:06;43.50;99.90
31975;DHT22;18500;43.618;1.474;2023-08-12T14:17:31;43.10;99.90
31975;DHT22;18500;43.618;1.474;2023-08-12T14:19:57;38.60;99.90
31975;DHT22;18500;43.618;1.474;2023-08-12T14:22:24;37.80;99.90
31975;DHT22;18500;43.618;1.474;2023-08-12T14:24:50;37.70;99.90
31975;DHT22;18500;43.618;1.474;2023-08-12T14:27:16;37.70;99.90
31975;DHT22;18500;43.618;1.474;2023-08-12T14:29:43;37.50;99.90
31975;DHT22;18500;43.618;1.474;2023-08-12T14:32:08;36.50;99.90
31975;DHT22;18500;43.618;1.474;2023-08-12T14:34:35;36.50;99.90
31975;DHT22;18500;43.618;1.474;2023-08-12T14:37:01;35.90;99.90
31975;DHT22;18500;43.618;1.474;2023-08-12T14:39:27;35.60;99.90
31975;DHT22;18500;43.618;1.474;2023-08-12T14:41:53;34.70;99.90
31975;DHT22;18500;43.618;1.474;2023-08-12T14:44:18;35.00;99.90
31975;DHT22;18500;43.618;1.474;2023-08-12T14:46:44;34.80;99.90
31975;DHT22;18500;43.618;1.474;2023-08-12T14:49:09;35.00;99.90
31975;DHT22;18500;43.618;1.474;2023-08-12T14:51:35;35.00;99.90
31975;DHT22;18500;43.618;1.474;2023-08-12T14:54:00;35.00;99.90
31975;DHT22;18500;43.618;1.474;2023-08-12T14:56:26;34.80;99.90
31975;DHT22;18500;43.618;1.474;2023-08-12T14:58:52;34.70;99.90
31975;DHT22;18500;43.618;1.474;2023-08-12T15:01:17;35.00;99.90
31975;DHT22;18500;43.618;1.474;2023-08-12T15:03:43;35.00;99.90
31975;DHT22;18500;43.618;1.474;2023-08-12T15:06:09;35.30;99.90
31975;DHT22;18500;43.618;1.474;2023-08-12T15:08:34;35.40;99.90
31975;DHT22;18500;43.618;1.474;2023-08-12T15:11:00;35.20;99.90
31975;DHT22;18500;43.618;1.474;2023-08-12T15:13:25;35.00;99.90
31975;DHT22;18500;43.618;1.474;2023-08-12T15:15:51;34.90;99.90
31975;DHT22;18500;43.618;1.474;2023-08-12T15:18:17;34.70;99.90
31975;DHT22;18500;43.618;1.474;2023-08-12T15:20:42;34.70;99.90
31975;DHT22;18500;43.618;1.474;2023-08-12T15:23:08;34.70;99.90
31975;DHT22;18500;43.618;1.474;2023-08-12T15:25:34;34.60;99.90
31975;DHT22;18500;43.618;1.474;2023-08-12T15:27:59;34.70;99.90
31975;DHT22;18500;43.618;1.474;2023-08-12T15:30:25;34.40;99.90
31975;DHT22;18500;43.618;1.474;2023-08-12T15:32:50;34.30;99.90
31975;DHT22;18500;43.618;1.474;2023-08-12T15:35:16;34.20;99.90
31975;DHT22;18500;43.618;1.474;2023-08-12T15:37:42;34.30;99.90
31975;DHT22;18500;43.618;1.474;2023-08-12T15:40:07;34.50;99.90
31975;DHT22;18500;43.618;1.474;2023-08-12T15:42:34;34.60;99.90
31975;DHT22;18500;43.618;1.474;2023-08-12T15:44:59;34.60;99.90
31975;DHT22;18500;43.618;1.474;2023-08-12T15:47:26;34.20;99.90
31975;DHT22;18500;43.618;1.474;2023-08-12T15:49:52;33.60;99.90